»·PEaware :: N782FL KPSP-KLAS

N782FL :: KPSP-KLAS

FLIGHT INFORMATION

Flight Status: Arrived
Operator: Privately registered:
United States
More flights under this callsign
Pilot: Luis B. (14232)
Aircraft: BEECH AIRCRAFT BARON
(BE58)
More flights by this aircraft type
Origin: KPSP Palm Springs Intl
United States
Destination: KLAS McCarran Intl
United States
More flights between these airports :: More routes between these airports
Route: +CATH1 PSP V370 TNP V538 CRESO CRESO4
File this flight plan on PilotEdge
Remarks:
Altitude:
(Current/Filed)
13,000ft
Speed:
(Current/Filed)
170kts
Departed: 14-Dec-17 07:10 PM
Arrived: 14-Dec-17 08:25 PM
Distance/Time
Traveled:
150nm/1:15
Distance/Time
To Go:
Arrived

Flight Plot

Page will automatically refresh every two minutes.

Flight plan parsing failed; only flown route is shown


Map Options




Map Legend


Flown Route
Filed Route
Departure Airport
Arrival Airport
Navaid (VOR, NDB)
Fix

Horizontal Profiles

Position Reports

Time Latitude Longitude Heading Altitude Ground
Speed
14-Dec-17 18:55 33.825352 -116.509543 90 480ft 0kts
14-Dec-17 18:56 33.825352 -116.509542 90 480ft 0kts
14-Dec-17 18:57 33.825352 -116.509542 90 480ft 0kts
14-Dec-17 18:58 33.825352 -116.509542 90 480ft 0kts
14-Dec-17 18:59 33.825352 -116.509542 90 480ft 0kts
14-Dec-17 19:00 33.825352 -116.509542 90 480ft 0kts
14-Dec-17 19:01 33.825352 -116.509542 90 480ft 0kts
14-Dec-17 19:02 33.825352 -116.509542 90 480ft 0kts
14-Dec-17 19:03 33.825352 -116.509542 90 480ft 0kts
14-Dec-17 19:04 33.825352 -116.509542 90 480ft 0kts
14-Dec-17 19:05 33.825352 -116.509542 90 480ft 0kts
14-Dec-17 19:06 33.825352 -116.509542 90 480ft 0kts
14-Dec-17 19:07 33.825352 -116.509542 90 480ft 0kts
14-Dec-17 19:08 33.825352 -116.509536 91 480ft 0kts
14-Dec-17 19:09 33.825331 -116.506405 88 480ft 6kts
14-Dec-17 19:10 33.822217 -116.503036 143 480ft 24kts
14-Dec-17 19:11 33.818513 -116.499074 89 480ft 0kts
14-Dec-17 19:12 33.818513 -116.499073 89 480ft 0kts
14-Dec-17 19:13 33.818513 -116.499074 89 480ft 0kts
14-Dec-17 19:14 33.818513 -116.499074 89 480ft 0kts
14-Dec-17 19:15 33.818797 -116.498239 10 480ft 6kts
14-Dec-17 19:16 33.834829 -116.512350 326 1035ft 115kts
14-Dec-17 19:17 33.860508 -116.538095 323 2559ft 119kts
14-Dec-17 19:18 33.884298 -116.565234 321 4031ft 119kts
14-Dec-17 19:19 33.909283 -116.572138 59 5245ft 128kts
14-Dec-17 19:20 33.899207 -116.528363 98 6477ft 139kts
14-Dec-17 19:21 33.886026 -116.484562 96 7591ft 141kts
14-Dec-17 19:22 33.872865 -116.439220 95 8544ft 144kts
14-Dec-17 19:23 33.881147 -116.399410 56 9485ft 118kts
14-Dec-17 19:24 33.894846 -116.363765 56 10287ft 117kts
14-Dec-17 19:25 33.908113 -116.328202 58 11066ft 116kts
14-Dec-17 19:26 33.921165 -116.292995 58 11830ft 115kts
14-Dec-17 19:27 33.934521 -116.257013 59 12439ft 120kts
14-Dec-17 19:28 33.948216 -116.220044 58 12954ft 125kts
14-Dec-17 19:29 33.963743 -116.178412 59 12971ft 140kts
14-Dec-17 19:30 33.979540 -116.135737 59 12989ft 138kts
14-Dec-17 19:31 33.995629 -116.093772 58 13010ft 138kts
14-Dec-17 19:32 34.011074 -116.051354 60 13030ft 138kts
14-Dec-17 19:33 34.026315 -116.009018 60 13050ft 138kts
14-Dec-17 19:34 34.041575 -115.966587 59 13069ft 137kts
14-Dec-17 19:35 34.056730 -115.924396 59 13089ft 137kts
14-Dec-17 19:36 34.071929 -115.882029 59 13108ft 137kts
14-Dec-17 19:37 34.087063 -115.839795 59 13122ft 137kts
14-Dec-17 19:38 34.102234 -115.797513 59 13129ft 137kts
14-Dec-17 19:39 34.122094 -115.758760 41 13131ft 136kts
14-Dec-17 19:40 34.149699 -115.727215 42 13129ft 137kts
14-Dec-17 19:41 34.177349 -115.695309 42 13060ft 142kts
14-Dec-17 19:42 34.205948 -115.662248 42 12990ft 141kts
14-Dec-17 19:43 34.234044 -115.629738 42 12990ft 138kts
14-Dec-17 19:44 34.261761 -115.597637 42 12990ft 138kts
14-Dec-17 19:45 34.289385 -115.565614 42 12990ft 137kts
14-Dec-17 19:46 34.316855 -115.533742 41 12989ft 137kts
14-Dec-17 19:47 34.352079 -115.515652 24 12989ft 138kts
14-Dec-17 19:48 34.388178 -115.499439 24 12988ft 138kts
14-Dec-17 19:49 34.424356 -115.483600 24 12988ft 138kts
14-Dec-17 19:50 34.460520 -115.467934 23 12988ft 138kts
14-Dec-17 19:51 34.496761 -115.452298 23 12987ft 138kts
14-Dec-17 19:52 34.532870 -115.436741 23 12986ft 138kts
14-Dec-17 19:53 34.568934 -115.421199 23 12978ft 138kts
14-Dec-17 19:54 34.605329 -115.405503 23 12954ft 139kts
14-Dec-17 19:55 34.641648 -115.389831 23 12932ft 139kts
14-Dec-17 19:56 34.677943 -115.374158 23 12913ft 138kts
14-Dec-17 19:57 34.714227 -115.358476 23 12897ft 138kts
14-Dec-17 19:58 34.750085 -115.342652 24 12899ft 138kts
14-Dec-17 19:59 34.786317 -115.326560 24 12898ft 139kts
14-Dec-17 20:00 34.822577 -115.310683 24 12898ft 139kts
14-Dec-17 20:01 34.859076 -115.294842 24 12897ft 139kts
14-Dec-17 20:02 34.895556 -115.279001 24 12896ft 139kts
14-Dec-17 20:03 34.932158 -115.263055 23 12896ft 141kts
14-Dec-17 20:04 34.969505 -115.246795 22 12896ft 144kts
14-Dec-17 20:05 35.007614 -115.230210 21 12896ft 147kts
14-Dec-17 20:06 35.046610 -115.213174 21 12897ft 150kts
14-Dec-17 20:07 35.086359 -115.195834 21 12897ft 152kts
14-Dec-17 20:08 35.126284 -115.178501 21 12912ft 154kts
14-Dec-17 20:09 35.166703 -115.160864 21 12911ft 154kts
14-Dec-17 20:10 35.208697 -115.173322 4 12914ft 157kts
14-Dec-17 20:11 35.252218 -115.173751 4 12938ft 156kts
14-Dec-17 20:12 35.295684 -115.173589 4 12964ft 156kts
14-Dec-17 20:13 35.339013 -115.173134 5 12991ft 156kts
14-Dec-17 20:14 35.382355 -115.172567 5 13008ft 156kts
14-Dec-17 20:15 35.425869 -115.171950 5 13011ft 156kts
14-Dec-17 20:16 35.469506 -115.171317 5 13014ft 157kts
14-Dec-17 20:17 35.514055 -115.170613 4 12746ft 169kts
14-Dec-17 20:18 35.562252 -115.169827 4 12263ft 177kts
14-Dec-17 20:19 35.612865 -115.169068 4 11683ft 186kts
14-Dec-17 20:20 35.665373 -115.168315 4 11087ft 191kts
14-Dec-17 20:21 35.718696 -115.164651 10 10488ft 193kts
14-Dec-17 20:22 35.772055 -115.156116 10 9887ft 194kts
14-Dec-17 20:23 35.825815 -115.147592 10 9284ft 195kts
14-Dec-17 20:24 35.879781 -115.139062 10 8681ft 196kts
14-Dec-17 20:25 35.934528 -115.132990 1 8078ft 201kts
14-Dec-17 20:26 35.989458 -115.136168 1 7342ft 198kts
14-Dec-17 20:27 36.041622 -115.140178 356 6106ft 181kts
14-Dec-17 20:28 36.087510 -115.137456 25 4180ft 143kts
14-Dec-17 20:29 36.116833 -115.135476 321 3069ft 120kts
14-Dec-17 20:30 36.097800 -115.157473 204 2145ft 107kts
14-Dec-17 20:31 36.084283 -115.165861 229 2114ft 23kts
14-Dec-17 20:32 36.082112 -115.168878 205 2114ft 10kts
14-Dec-17 20:33 36.080421 -115.170912 76 2114ft 0kts
14-Dec-17 20:34 36.080422 -115.170910 75 2114ft 0kts

Navigation Log

Ident Type
Flight plan parsing failed, navigation log unavailable